createdAt,value
2019-04-30T00:01:33.497Z,11.50
2019-04-30T00:04:13.296Z,10.65
2019-04-30T00:06:42.598Z,11.57
2019-04-30T00:09:17.095Z,11.28
2019-04-30T00:11:46.059Z,11.20
2019-04-30T00:14:16.757Z,11.68
2019-04-30T00:16:46.057Z,10.70
2019-04-30T00:19:19.441Z,11.57
2019-04-30T00:21:50.252Z,12.25
2019-04-30T00:24:17.522Z,12.82
2019-04-30T00:26:52.017Z,13.50
2019-04-30T00:29:26.410Z,12.58
2019-04-30T00:31:49.112Z,11.85
2019-04-30T00:34:18.465Z,12.40
2019-04-30T00:36:47.847Z,12.80
2019-04-30T00:39:27.222Z,12.82
2019-04-30T00:41:56.835Z,11.90
2019-04-30T00:44:28.271Z,12.80
2019-04-30T00:47:00.705Z,12.70
2019-04-30T00:49:28.444Z,13.75
2019-04-30T00:51:58.326Z,13.18
2019-04-30T00:54:30.660Z,12.47
2019-04-30T00:57:04.417Z,14.00
2019-04-30T00:59:30.048Z,15.05
2019-04-30T01:02:05.962Z,14.65
2019-04-30T01:04:37.721Z,14.93
2019-04-30T01:07:08.796Z,14.33
2019-04-30T01:09:39.656Z,14.75
2019-04-30T01:12:09.451Z,14.38
2019-04-30T01:14:40.416Z,15.18
2019-04-30T01:17:12.326Z,14.58
2019-04-30T01:19:41.300Z,15.25
2019-04-30T01:22:10.675Z,14.63
2019-04-30T01:24:40.060Z,16.02
2019-04-30T01:27:10.608Z,16.37
2019-04-30T01:29:44.091Z,16.05
2019-04-30T01:32:17.602Z,15.78
2019-04-30T01:34:44.211Z,17.67
2019-04-30T01:37:14.622Z,16.80
2019-04-30T01:39:44.917Z,17.77
2019-04-30T01:42:14.312Z,17.75
2019-04-30T01:44:50.475Z,17.00
2019-04-30T01:47:14.656Z,17.67
2019-04-30T01:49:45.129Z,18.82
2019-04-30T01:52:14.455Z,18.50
2019-04-30T01:54:43.774Z,20.25
2019-04-30T01:57:19.241Z,18.32
2019-04-30T02:00:02.274Z,20.35
2019-04-30T02:02:34.628Z,20.88
2019-04-30T02:05:08.905Z,22.05
2019-04-30T02:07:40.153Z,22.80
2019-04-30T02:10:09.855Z,21.23
2019-04-30T02:12:39.324Z,22.95
2019-04-30T02:15:09.533Z,24.20
2019-04-30T02:17:39.018Z,24.50
2019-04-30T02:20:10.366Z,23.38
2019-04-30T02:22:39.682Z,26.05
2019-04-30T02:25:09.936Z,26.07
2019-04-30T02:27:39.280Z,26.33
2019-04-30T02:30:11.074Z,25.68
2019-04-30T02:32:40.397Z,26.75
2019-04-30T02:35:14.124Z,26.00
2019-04-30T02:38:01.436Z,25.25
2019-04-30T02:40:33.934Z,24.80
2019-04-30T02:43:03.848Z,25.90
2019-04-30T02:45:35.425Z,23.80
2019-04-30T02:48:05.372Z,25.17
2019-04-30T02:50:35.530Z,25.32
2019-04-30T02:53:09.722Z,25.62
2019-04-30T02:55:45.400Z,24.55
2019-04-30T02:58:14.708Z,27.15
2019-04-30T03:00:44.038Z,27.15
2019-04-30T03:03:13.340Z,27.73
2019-04-30T03:05:42.674Z,26.23
2019-04-30T03:08:11.989Z,26.62
2019-04-30T03:10:41.318Z,25.90
2019-04-30T03:13:10.647Z,26.90
2019-04-30T03:15:39.972Z,26.40
2019-04-30T03:18:23.087Z,27.82
2019-04-30T03:20:52.661Z,25.60
2019-04-30T03:23:22.074Z,28.38
2019-04-30T03:25:51.378Z,27.48
2019-04-30T03:28:20.780Z,30.20
2019-04-30T03:30:56.167Z,31.10
2019-04-30T03:33:23.076Z,30.77
2019-04-30T03:35:54.143Z,30.23
2019-04-30T03:38:23.791Z,30.02
2019-04-30T03:40:53.288Z,29.87
2019-04-30T03:43:22.611Z,29.12
2019-04-30T03:45:51.923Z,29.55
2019-04-30T03:48:21.250Z,30.15
2019-04-30T03:50:56.682Z,29.35
2019-04-30T03:53:21.589Z,29.40
2019-04-30T03:55:50.946Z,29.82
2019-04-30T03:58:21.484Z,29.10
2019-04-30T04:00:53.728Z,29.35
2019-04-30T04:03:24.100Z,29.77
2019-04-30T04:06:00.750Z,30.72
2019-04-30T04:08:39.131Z,30.60
2019-04-30T04:11:10.329Z,30.02
2019-04-30T04:13:40.025Z,33.25
2019-04-30T04:16:10.511Z,38.53
2019-04-30T04:18:40.336Z,32.93
2019-04-30T04:21:16.504Z,31.37
2019-04-30T04:23:40.844Z,29.55
2019-04-30T04:26:10.172Z,29.52
2019-04-30T04:28:43.241Z,30.37
2019-04-30T04:31:10.573Z,31.65
2019-04-30T04:33:39.875Z,31.30
2019-04-30T04:36:09.547Z,29.02
2019-04-30T04:38:40.348Z,32.13
2019-04-30T04:41:10.397Z,29.48
2019-04-30T04:43:40.266Z,30.72
2019-04-30T04:46:09.793Z,29.83
2019-04-30T04:48:39.563Z,29.07
2019-04-30T04:51:19.814Z,30.00
2019-04-30T04:53:40.281Z,28.38
2019-04-30T04:56:10.210Z,30.80
2019-04-30T04:58:40.222Z,26.25
2019-04-30T05:01:11.853Z,26.70
2019-04-30T05:03:40.844Z,27.22
2019-04-30T05:06:11.832Z,27.22
2019-04-30T05:08:41.381Z,28.00
2019-04-30T05:11:10.784Z,26.52
2019-04-30T05:13:40.145Z,25.50
2019-04-30T05:16:09.508Z,28.35
2019-04-30T05:18:39.172Z,22.37
2019-04-30T05:21:08.959Z,23.00
2019-04-30T05:23:41.118Z,23.67
2019-04-30T05:26:11.077Z,21.80
2019-04-30T05:28:40.609Z,19.70
2019-04-30T05:31:09.912Z,23.32
2019-04-30T05:33:39.241Z,22.42
2019-04-30T05:36:09.345Z,24.45
2019-04-30T05:38:39.812Z,23.77
2019-04-30T05:41:09.409Z,24.50
2019-04-30T05:43:38.839Z,23.12
2019-04-30T05:46:10.794Z,24.95
2019-04-30T05:48:39.766Z,23.90
2019-04-30T05:51:10.332Z,20.82
2019-04-30T05:53:39.648Z,21.50
2019-04-30T05:56:09.527Z,18.45
2019-04-30T05:58:39.813Z,20.27
2019-04-30T06:01:09.790Z,19.50
2019-04-30T06:03:40.522Z,19.15
2019-04-30T06:06:11.455Z,17.82
2019-04-30T06:08:45.329Z,18.23
2019-04-30T06:11:19.313Z,18.20
2019-04-30T06:13:53.316Z,16.32
2019-04-30T06:16:24.436Z,17.73
2019-04-30T06:18:53.913Z,17.65
2019-04-30T06:21:23.292Z,16.77
2019-04-30T06:23:52.753Z,16.93
2019-04-30T06:26:22.300Z,16.12
2019-04-30T06:28:51.715Z,17.10
2019-04-30T06:31:31.902Z,16.93
2019-04-30T06:33:52.472Z,15.72
2019-04-30T06:36:21.852Z,17.25
2019-04-30T06:38:51.200Z,16.48
2019-04-30T06:41:20.512Z,17.30
2019-04-30T06:43:50.372Z,17.82
2019-04-30T06:46:19.746Z,19.37
2019-04-30T06:48:51.103Z,19.10
2019-04-30T06:51:21.253Z,21.68
2019-04-30T06:53:51.366Z,21.65
2019-04-30T06:56:20.787Z,22.87
2019-04-30T06:58:52.603Z,23.55
2019-04-30T07:01:23.727Z,24.50
2019-04-30T07:03:53.209Z,24.57
2019-04-30T07:06:29.605Z,24.80
2019-04-30T07:08:59.654Z,27.52
2019-04-30T07:11:49.334Z,28.38
2019-04-30T07:14:19.537Z,30.12
2019-04-30T07:16:49.491Z,31.95
2019-04-30T07:19:29.950Z,32.20
2019-04-30T07:21:49.939Z,33.28
2019-04-30T07:24:20.972Z,34.83
2019-04-30T07:26:54.682Z,35.05
2019-04-30T07:29:21.488Z,35.68
2019-04-30T07:31:51.668Z,35.33
2019-04-30T07:34:21.320Z,37.40
2019-04-30T07:37:10.424Z,36.08
2019-04-30T07:39:23.568Z,35.88
2019-04-30T07:41:52.748Z,38.00
2019-04-30T07:46:53.079Z,36.48
2019-04-30T07:49:22.408Z,36.80
2019-04-30T07:51:52.877Z,34.75
2019-04-30T07:54:22.736Z,36.68
2019-04-30T07:56:52.068Z,37.00
2019-04-30T07:59:21.490Z,40.15
2019-04-30T08:02:04.058Z,37.40
2019-04-30T08:04:29.287Z,36.40
2019-04-30T08:07:00.258Z,35.78
2019-04-30T08:09:36.969Z,37.35
2019-04-30T08:09:39.228Z,36.03
2019-04-30T08:12:01.091Z,36.48
2019-04-30T08:14:30.603Z,37.53
2019-04-30T08:16:59.984Z,35.13
2019-04-30T08:19:30.389Z,34.50
2019-04-30T08:22:00.816Z,33.55
2019-04-30T08:24:30.213Z,35.73
2019-04-30T08:27:01.315Z,34.25
2019-04-30T08:29:30.716Z,35.17
2019-04-30T08:32:00.045Z,36.10
2019-04-30T08:34:29.385Z,36.45
2019-04-30T08:36:59.423Z,36.10
2019-04-30T08:39:31.624Z,36.23
2019-04-30T08:42:00.070Z,33.60
2019-04-30T08:44:29.716Z,35.17
2019-04-30T08:47:00.100Z,35.10
2019-04-30T08:49:30.410Z,35.88
2019-04-30T08:52:00.260Z,36.53
2019-04-30T08:54:29.616Z,34.38
2019-04-30T08:56:59.536Z,34.67
2019-04-30T08:59:29.560Z,36.93
2019-04-30T09:02:12.277Z,34.63
2019-04-30T09:04:32.237Z,37.13
2019-04-30T09:07:01.537Z,34.27
2019-04-30T09:09:30.937Z,34.05
2019-04-30T09:12:00.239Z,34.65
2019-04-30T09:14:29.963Z,35.20
2019-04-30T09:16:59.693Z,35.57
2019-04-30T09:19:29.746Z,35.28
2019-04-30T09:21:59.390Z,34.55
2019-04-30T09:24:30.688Z,34.50
2019-04-30T09:26:59.717Z,35.78
2019-04-30T09:29:29.391Z,33.33
2019-04-30T09:31:59.383Z,36.63
2019-04-30T09:34:29.246Z,35.52
2019-04-30T09:36:59.334Z,33.90
2019-04-30T09:39:29.529Z,33.93
2019-04-30T09:41:59.680Z,33.38
2019-04-30T09:44:30.885Z,31.70
2019-04-30T09:47:00.353Z,29.72
2019-04-30T09:49:29.698Z,31.45
2019-04-30T09:51:59.695Z,30.55
2019-04-30T09:54:29.907Z,28.95
2019-04-30T09:57:00.432Z,26.48
2019-04-30T09:59:29.767Z,26.65
2019-04-30T10:01:59.108Z,28.07
2019-04-30T10:04:30.290Z,27.35
2019-04-30T10:06:59.625Z,24.87
2019-04-30T10:09:29.487Z,26.42
2019-04-30T10:12:12.558Z,23.45
2019-04-30T10:14:41.937Z,24.55
2019-04-30T10:17:29.772Z,25.88
2019-04-30T10:19:59.176Z,25.50
2019-04-30T10:22:28.487Z,25.23
2019-04-30T10:24:59.669Z,25.95
2019-04-30T10:27:29.491Z,26.33
2019-04-30T10:29:59.586Z,26.30
2019-04-30T10:32:29.981Z,26.57
2019-04-30T10:37:28.718Z,28.02
2019-04-30T10:39:59.744Z,27.45
2019-04-30T10:42:29.289Z,29.05
2019-04-30T10:45:00.287Z,28.45
2019-04-30T10:47:32.491Z,29.90
2019-04-30T10:50:00.781Z,31.25
2019-04-30T10:52:30.106Z,31.75
2019-04-30T10:54:59.642Z,30.92
2019-04-30T10:57:29.086Z,30.85
2019-04-30T10:59:58.769Z,31.57
2019-04-30T11:02:28.773Z,29.80
2019-04-30T11:04:59.237Z,33.02
2019-04-30T11:07:28.905Z,32.10
2019-04-30T11:09:58.876Z,30.33
2019-04-30T11:12:29.237Z,33.67
2019-04-30T11:14:58.828Z,31.45
2019-04-30T11:17:30.075Z,32.13
2019-04-30T11:19:59.501Z,32.42
2019-04-30T11:22:29.179Z,33.27
2019-04-30T11:25:02.602Z,34.18
2019-04-30T11:27:32.190Z,32.08
2019-04-30T11:30:04.045Z,30.85
2019-04-30T11:32:33.267Z,31.50
2019-04-30T11:35:03.065Z,32.40
2019-04-30T11:37:32.411Z,31.00
2019-04-30T11:40:01.792Z,31.80
2019-04-30T11:42:32.375Z,30.43
2019-04-30T11:45:01.880Z,28.85
2019-04-30T11:47:32.925Z,30.45
2019-04-30T11:50:02.609Z,29.27
2019-04-30T11:52:32.187Z,30.40
2019-04-30T11:55:01.632Z,27.65
2019-04-30T11:57:31.208Z,29.20
2019-04-30T12:00:00.540Z,28.35
2019-04-30T12:02:33.161Z,28.70
2019-04-30T12:05:05.184Z,30.85
2019-04-30T12:07:38.272Z,29.40
2019-04-30T12:10:13.165Z,29.67
2019-04-30T12:12:43.613Z,27.93
2019-04-30T12:15:12.952Z,28.30
2019-04-30T12:17:42.276Z,28.05
2019-04-30T12:20:12.176Z,26.02
2019-04-30T12:22:41.480Z,27.27
2019-04-30T12:25:11.156Z,27.35
2019-04-30T12:27:40.545Z,27.23
2019-04-30T12:30:10.713Z,25.43
2019-04-30T12:32:40.049Z,23.32
2019-04-30T12:35:11.272Z,22.20
2019-04-30T12:37:41.680Z,22.58
2019-04-30T12:40:25.819Z,23.30
2019-04-30T12:42:42.327Z,23.77
2019-04-30T12:45:12.009Z,23.20
2019-04-30T12:47:45.679Z,24.57
2019-04-30T12:50:51.618Z,23.75
2019-04-30T12:53:28.951Z,25.27
2019-04-30T12:56:02.865Z,25.77
2019-04-30T12:58:32.274Z,25.37
2019-04-30T13:01:01.725Z,25.90
2019-04-30T13:03:31.077Z,26.82
2019-04-30T13:06:01.609Z,25.88
2019-04-30T13:08:31.933Z,27.70
2019-04-30T13:11:02.284Z,28.12
2019-04-30T13:13:32.673Z,28.60
2019-04-30T13:18:30.980Z,27.65
2019-04-30T13:23:09.733Z,26.50
2019-04-30T13:25:48.973Z,24.82
2019-04-30T13:28:11.883Z,26.52
2019-04-30T13:30:42.271Z,26.52
2019-04-30T13:35:49.583Z,25.05
2019-04-30T13:38:20.559Z,24.75
2019-04-30T13:40:53.960Z,26.23
2019-04-30T13:43:39.935Z,26.95
2019-04-30T13:46:08.615Z,26.33
2019-04-30T13:48:38.024Z,25.37
2019-04-30T13:51:07.332Z,24.77
2019-04-30T13:53:36.660Z,24.80
2019-04-30T13:56:06.047Z,25.80
2019-04-30T13:58:35.380Z,24.27
2019-04-30T14:03:39.818Z,25.85
2019-04-30T14:06:10.806Z,26.65
2019-04-30T14:08:53.611Z,26.73
2019-04-30T14:11:22.990Z,26.57
2019-04-30T14:13:52.393Z,26.85
2019-04-30T14:16:22.257Z,26.55
2019-04-30T14:18:51.661Z,26.30
2019-04-30T14:21:32.331Z,25.32
2019-04-30T14:23:52.071Z,25.75
2019-04-30T14:26:21.475Z,23.25
2019-04-30T14:28:50.796Z,23.10
2019-04-30T14:31:20.858Z,25.92
2019-04-30T14:33:51.377Z,23.38
2019-04-30T14:36:20.756Z,23.40
2019-04-30T14:41:20.237Z,22.60
2019-04-30T14:43:55.017Z,23.32
2019-04-30T14:46:26.681Z,24.82
2019-04-30T14:49:15.520Z,22.27
2019-04-30T14:51:45.655Z,21.30
2019-04-30T14:54:22.738Z,21.85
2019-04-30T14:56:53.772Z,19.95
2019-04-30T14:59:33.990Z,19.40
2019-04-30T15:02:08.897Z,20.60
2019-04-30T15:04:39.314Z,18.73
2019-04-30T15:07:09.711Z,19.55
2019-04-30T15:09:39.391Z,20.60
2019-04-30T15:12:09.720Z,18.43
2019-04-30T15:14:40.903Z,18.42
2019-04-30T15:17:10.381Z,18.60
2019-04-30T15:19:39.799Z,17.60
2019-04-30T15:22:09.187Z,16.77
2019-04-30T15:24:40.555Z,16.40
2019-04-30T15:27:09.899Z,18.42
2019-04-30T15:29:39.373Z,18.50
2019-04-30T15:32:08.809Z,16.97
2019-04-30T15:34:40.888Z,16.97
2019-04-30T15:37:19.248Z,18.00
2019-04-30T15:39:41.042Z,17.62
2019-04-30T15:42:10.750Z,16.02
2019-04-30T15:44:42.812Z,16.15
2019-04-30T15:47:11.604Z,15.05
2019-04-30T15:49:41.023Z,16.55
2019-04-30T15:52:10.983Z,18.42
2019-04-30T15:54:40.523Z,16.50
2019-04-30T15:57:09.864Z,14.53
2019-04-30T15:59:41.093Z,14.25
2019-04-30T16:02:18.808Z,13.45
2019-04-30T16:04:52.925Z,14.85
2019-04-30T16:07:22.311Z,14.65
2019-04-30T16:09:59.248Z,16.25
2019-04-30T16:12:39.268Z,15.35
2019-04-30T16:15:10.054Z,15.80
2019-04-30T16:17:41.073Z,16.70
2019-04-30T16:20:10.545Z,16.67
2019-04-30T16:22:40.007Z,16.43
2019-04-30T16:25:09.579Z,14.87
2019-04-30T16:27:39.067Z,14.33
2019-04-30T16:30:09.559Z,16.75
2019-04-30T16:32:40.244Z,15.15
2019-04-30T16:35:09.904Z,15.20
2019-04-30T16:37:39.275Z,14.85
2019-04-30T16:40:10.416Z,15.48
2019-04-30T16:42:39.839Z,15.18
2019-04-30T16:45:09.634Z,14.03
2019-04-30T16:47:39.042Z,13.78
2019-04-30T16:50:09.113Z,13.72
2019-04-30T16:52:39.356Z,12.68
2019-04-30T16:55:13.154Z,16.67
2019-04-30T16:57:45.045Z,12.37
2019-04-30T17:00:16.758Z,13.00
2019-04-30T17:02:49.390Z,12.93
2019-04-30T17:05:25.949Z,18.70
2019-04-30T17:08:02.616Z,12.98
2019-04-30T17:10:39.616Z,13.35
2019-04-30T17:13:16.142Z,12.68
2019-04-30T17:15:47.476Z,13.43
2019-04-30T17:18:18.921Z,12.80
2019-04-30T17:20:49.125Z,11.90
2019-04-30T17:23:19.330Z,12.80
2019-04-30T17:25:48.887Z,12.85
2019-04-30T17:28:18.841Z,17.35
2019-04-30T17:30:49.134Z,13.75
2019-04-30T17:33:18.722Z,16.55
2019-04-30T17:35:49.746Z,24.85
2019-04-30T17:38:19.248Z,48.78
2019-04-30T17:40:49.703Z,15.35
2019-04-30T17:45:49.411Z,15.95
2019-04-30T17:48:19.158Z,14.63
2019-04-30T17:50:49.807Z,15.58
2019-04-30T17:53:19.300Z,14.00
2019-04-30T17:55:49.114Z,15.80
2019-04-30T17:58:20.623Z,15.85
2019-04-30T18:00:51.283Z,14.85
2019-04-30T18:03:20.688Z,17.07
2019-04-30T18:05:50.347Z,17.37
2019-04-30T18:08:19.956Z,17.60
2019-04-30T18:10:49.571Z,16.23
2019-04-30T18:13:18.989Z,17.02
2019-04-30T18:15:49.321Z,16.87
2019-04-30T18:18:20.308Z,17.20
2019-04-30T18:20:56.834Z,16.80
2019-04-30T18:23:43.353Z,16.90
2019-04-30T18:26:14.306Z,17.67
2019-04-30T18:28:43.660Z,18.07
2019-04-30T18:31:13.079Z,17.00
2019-04-30T18:33:42.416Z,17.45
2019-04-30T18:36:11.723Z,16.00
2019-04-30T18:38:41.067Z,15.83
2019-04-30T18:41:10.612Z,17.48
2019-04-30T18:43:40.513Z,16.23
2019-04-30T18:46:10.840Z,17.67
2019-04-30T18:48:40.446Z,17.73
2019-04-30T18:51:29.921Z,17.55
2019-04-30T18:53:40.996Z,17.32
2019-04-30T18:56:14.446Z,17.60
2019-04-30T18:58:43.084Z,19.48
2019-04-30T19:01:13.185Z,18.82
2019-04-30T19:03:42.845Z,18.25
2019-04-30T19:06:22.987Z,19.37
2019-04-30T19:09:02.691Z,19.48
2019-04-30T19:11:49.355Z,20.23
2019-04-30T19:14:35.429Z,19.92
2019-04-30T19:17:06.652Z,20.10
2019-04-30T19:19:43.746Z,21.60
2019-04-30T19:22:14.237Z,21.60
2019-04-30T19:24:55.692Z,21.75
2019-04-30T19:27:14.701Z,22.77
2019-04-30T19:29:44.028Z,21.55
2019-04-30T19:32:13.381Z,20.52
2019-04-30T19:34:42.790Z,21.23
2019-04-30T19:37:12.161Z,20.55
2019-04-30T19:39:41.608Z,22.13
2019-04-30T19:42:10.922Z,20.12
2019-04-30T19:44:40.334Z,21.68
2019-04-30T19:47:10.109Z,22.75
2019-04-30T19:49:41.561Z,21.70
2019-04-30T19:52:11.814Z,21.80
2019-04-30T19:57:10.318Z,22.27
2019-04-30T19:59:39.716Z,23.05
2019-04-30T20:02:10.709Z,21.75
2019-04-30T20:04:42.135Z,22.62
2019-04-30T20:07:11.128Z,59.95
2019-04-30T20:09:43.002Z,26.42
2019-04-30T20:12:11.474Z,24.02
2019-04-30T20:14:40.968Z,22.80
2019-04-30T20:17:13.068Z,22.62
2019-04-30T20:19:41.533Z,23.92
2019-04-30T20:22:11.103Z,22.70
2019-04-30T20:24:40.511Z,24.15
2019-04-30T20:27:10.390Z,23.12
2019-04-30T20:29:40.997Z,23.12
2019-04-30T20:32:10.936Z,23.40
2019-04-30T20:34:40.604Z,25.08
2019-04-30T20:37:09.942Z,24.82
2019-04-30T20:39:43.736Z,24.25
2019-04-30T20:42:13.110Z,24.72
2019-04-30T20:44:42.448Z,24.77
2019-04-30T20:47:11.749Z,25.77
2019-04-30T20:49:41.071Z,24.82
2019-04-30T20:52:10.400Z,25.27
2019-04-30T20:54:39.782Z,25.57
2019-04-30T20:57:09.088Z,27.27
2019-04-30T20:59:38.828Z,29.00
2019-04-30T21:02:08.376Z,27.97
2019-04-30T21:04:37.776Z,28.23
2019-04-30T21:07:07.096Z,26.82
2019-04-30T21:09:38.169Z,28.23
2019-04-30T21:12:08.999Z,27.17
2019-04-30T21:14:40.391Z,28.05
2019-04-30T21:17:09.471Z,29.52
2019-04-30T21:19:38.815Z,28.85
2019-04-30T21:22:09.525Z,29.20
2019-04-30T21:24:39.115Z,28.40
2019-04-30T21:27:08.412Z,26.60
2019-04-30T21:29:39.131Z,28.62
2019-04-30T21:34:40.428Z,27.52
2019-04-30T21:37:09.983Z,27.48
2019-04-30T21:39:39.323Z,29.15
2019-04-30T21:42:09.272Z,27.77
2019-04-30T21:44:39.981Z,29.92
2019-04-30T21:47:09.367Z,30.77
2019-04-30T21:49:38.698Z,28.17
2019-04-30T21:52:08.075Z,29.20
2019-04-30T21:54:38.770Z,28.85
2019-04-30T21:59:38.727Z,27.55
2019-04-30T22:02:08.197Z,28.42
2019-04-30T22:04:37.566Z,28.15
2019-04-30T22:07:07.034Z,29.27
2019-04-30T22:09:36.384Z,29.02
2019-04-30T22:12:05.783Z,28.00
2019-04-30T22:14:35.169Z,29.30
2019-04-30T22:17:04.605Z,29.48
2019-04-30T22:19:33.987Z,30.43
2019-04-30T22:22:03.461Z,30.00
2019-04-30T22:24:32.804Z,28.45
2019-04-30T22:27:02.142Z,27.95
2019-04-30T22:29:39.295Z,28.15
2019-04-30T22:32:02.535Z,28.40
2019-04-30T22:34:31.901Z,30.37
2019-04-30T22:37:02.296Z,29.63
2019-04-30T22:39:36.172Z,28.20
2019-04-30T22:42:30.314Z,29.70
2019-04-30T22:45:01.990Z,30.48
2019-04-30T22:49:59.903Z,30.43
2019-04-30T22:52:29.262Z,31.20
2019-04-30T22:54:58.640Z,28.40
2019-04-30T22:57:27.980Z,31.40
2019-04-30T22:59:57.284Z,28.10
2019-04-30T23:02:28.281Z,29.50
2019-04-30T23:04:58.515Z,27.35
2019-04-30T23:07:27.834Z,28.92
2019-04-30T23:09:57.167Z,27.85
2019-04-30T23:12:26.889Z,27.00
2019-04-30T23:14:56.193Z,28.10
2019-04-30T23:17:25.667Z,27.37
2019-04-30T23:19:54.999Z,28.70
2019-04-30T23:22:24.369Z,27.15
2019-04-30T23:24:53.687Z,28.02
2019-04-30T23:27:22.995Z,28.70
2019-04-30T23:30:02.724Z,29.85
2019-04-30T23:32:23.328Z,29.35
2019-04-30T23:34:52.694Z,29.70
2019-04-30T23:37:22.031Z,29.42
2019-04-30T23:39:51.355Z,26.75
2019-04-30T23:42:20.801Z,26.80
2019-04-30T23:44:50.110Z,27.37
2019-04-30T23:47:19.430Z,27.52
2019-04-30T23:49:48.757Z,25.55
2019-04-30T23:52:18.061Z,25.77
2019-04-30T23:54:47.381Z,26.70
2019-04-30T23:57:16.685Z,27.35
2019-04-30T23:59:46.028Z,26.05
